createdAt,value
2022-10-17T00:00:24.879Z,491.23
2022-10-17T00:01:24.910Z,493.32
2022-10-17T00:02:24.876Z,494.67
2022-10-17T00:03:24.842Z,494.14
2022-10-17T00:04:24.869Z,458.32
2022-10-17T00:05:24.866Z,458.03
2022-10-17T00:06:24.800Z,462.58
2022-10-17T00:07:25.036Z,478.12
2022-10-17T00:08:24.778Z,467.62
2022-10-17T00:09:24.795Z,472.91
2022-10-17T00:10:24.762Z,473.37
2022-10-17T00:11:24.767Z,474.72
2022-10-17T00:12:24.747Z,479.11
2022-10-17T00:13:24.783Z,477.63
2022-10-17T00:14:24.725Z,473.11
2022-10-17T00:15:24.729Z,475.96
2022-10-17T00:16:24.702Z,468.25
2022-10-17T00:17:25.043Z,468.00
2022-10-17T00:18:24.669Z,465.82
2022-10-17T00:19:24.677Z,453.05
2022-10-17T00:20:24.663Z,455.07
2022-10-17T00:21:24.660Z,454.40
2022-10-17T00:22:24.675Z,457.23
2022-10-17T00:23:24.614Z,461.72
2022-10-17T00:24:24.613Z,454.54
2022-10-17T00:25:24.603Z,453.49
2022-10-17T00:26:24.576Z,457.29
2022-10-17T00:27:24.942Z,457.06
2022-10-17T00:28:24.610Z,458.95
2022-10-17T00:29:24.566Z,460.79
2022-10-17T00:30:24.548Z,450.54
2022-10-17T00:31:24.542Z,449.88
2022-10-17T00:32:24.530Z,450.39
2022-10-17T00:33:24.519Z,446.26
2022-10-17T00:34:24.498Z,444.32
2022-10-17T00:35:24.513Z,441.64
2022-10-17T00:36:24.489Z,439.55
2022-10-17T00:37:24.476Z,434.24
2022-10-17T00:38:24.442Z,436.41
2022-10-17T00:39:24.448Z,430.21
2022-10-17T00:40:24.419Z,435.93
2022-10-17T00:41:24.426Z,438.06
2022-10-17T00:42:24.802Z,392.05
2022-10-17T00:43:24.408Z,404.19
2022-10-17T00:44:24.378Z,409.16
2022-10-17T00:45:31.414Z,415.92
2022-10-17T00:46:24.364Z,415.02
2022-10-17T00:47:24.347Z,393.51
2022-10-17T00:48:24.335Z,403.85
2022-10-17T00:49:24.323Z,413.78
2022-10-17T00:50:24.321Z,412.39
2022-10-17T00:51:24.311Z,416.46
2022-10-17T00:52:24.302Z,412.60
2022-10-17T00:53:24.298Z,411.52
2022-10-17T00:54:24.279Z,408.38
2022-10-17T00:55:24.280Z,361.12
2022-10-17T00:56:24.252Z,371.57
2022-10-17T00:57:24.250Z,401.51
2022-10-17T00:58:24.218Z,421.30
2022-10-17T00:59:24.211Z,421.10
2022-10-17T01:00:24.195Z,431.94
2022-10-17T01:01:24.266Z,430.28
2022-10-17T01:02:24.191Z,430.42
2022-10-17T01:03:24.175Z,434.83
2022-10-17T01:04:24.157Z,434.22
2022-10-17T01:05:24.143Z,427.21
2022-10-17T01:06:24.239Z,419.16
2022-10-17T01:07:24.134Z,417.69
2022-10-17T01:08:24.122Z,417.74
2022-10-17T01:09:24.118Z,410.90
2022-10-17T01:10:24.084Z,412.03
2022-10-17T01:11:24.092Z,406.11
2022-10-17T01:12:24.069Z,405.70
2022-10-17T01:13:24.073Z,424.36
2022-10-17T01:14:24.046Z,405.32
2022-10-17T01:15:24.029Z,391.07
2022-10-17T01:16:24.034Z,391.13
2022-10-17T01:17:24.025Z,387.71
2022-10-17T01:18:24.008Z,402.68
2022-10-17T01:20:23.981Z,428.55
2022-10-17T01:21:23.962Z,429.04
2022-10-17T01:22:23.964Z,428.11
2022-10-17T01:23:23.938Z,439.38
2022-10-17T01:24:23.942Z,443.65
2022-10-17T01:25:23.941Z,439.93
2022-10-17T01:26:23.918Z,448.94
2022-10-17T01:27:23.893Z,412.24
2022-10-17T01:28:24.084Z,420.28
2022-10-17T01:29:23.868Z,421.36
2022-10-17T01:30:23.864Z,383.05
2022-10-17T01:31:23.847Z,398.89
2022-10-17T01:32:23.839Z,399.83
2022-10-17T01:33:23.837Z,365.29
2022-10-17T01:34:23.820Z,326.19
2022-10-17T01:35:23.804Z,346.78
2022-10-17T01:36:23.794Z,360.53
2022-10-17T01:37:23.778Z,363.02
2022-10-17T01:38:23.783Z,373.86
2022-10-17T01:39:25.021Z,358.99
2022-10-17T01:40:23.750Z,349.97
2022-10-17T01:41:23.752Z,353.25
2022-10-17T01:42:23.745Z,367.38
2022-10-17T01:43:23.724Z,364.84
2022-10-17T01:44:23.704Z,364.66
2022-10-17T01:45:23.690Z,374.90
2022-10-17T01:46:23.688Z,383.65
2022-10-17T01:47:23.667Z,390.05
2022-10-17T01:48:23.690Z,407.18
2022-10-17T01:49:23.646Z,414.35
2022-10-17T01:50:23.638Z,431.72
2022-10-17T01:51:23.624Z,442.09
2022-10-17T01:52:23.626Z,446.32
2022-10-17T01:53:23.598Z,449.96
2022-10-17T01:54:23.628Z,462.13
2022-10-17T01:55:23.589Z,467.97
2022-10-17T01:56:23.588Z,479.99
2022-10-17T01:57:23.574Z,501.12
2022-10-17T01:58:23.576Z,507.85
2022-10-17T01:59:23.542Z,538.72
2022-10-17T02:00:23.553Z,563.67
2022-10-17T02:01:23.604Z,594.00
2022-10-17T02:02:23.508Z,641.46
2022-10-17T02:03:23.502Z,752.45
2022-10-17T02:04:23.497Z,911.43
2022-10-17T02:05:23.465Z,956.70
2022-10-17T02:06:23.474Z,985.02
2022-10-17T02:07:23.453Z,1016.16
2022-10-17T02:08:23.475Z,1054.20
2022-10-17T02:09:23.431Z,1075.75
2022-10-17T02:10:23.430Z,1102.39
2022-10-17T02:11:23.397Z,1127.26
2022-10-17T02:12:23.391Z,1154.01
2022-10-17T02:13:23.495Z,1184.95
2022-10-17T02:14:23.385Z,1217.16
2022-10-17T02:15:23.351Z,1243.12
2022-10-17T02:16:23.352Z,1267.94
2022-10-17T02:17:23.329Z,1290.96
2022-10-17T02:18:23.323Z,1303.61
2022-10-17T02:19:23.318Z,1303.61
2022-10-17T02:20:23.308Z,1303.61
2022-10-17T02:21:23.284Z,1303.61
2022-10-17T02:22:23.277Z,1303.61
2022-10-17T02:23:23.273Z,1303.61
2022-10-17T02:24:23.268Z,1303.61
2022-10-17T02:25:23.262Z,1303.61
2022-10-17T02:26:23.234Z,1303.61
2022-10-17T02:27:23.217Z,1303.61
2022-10-17T02:28:23.252Z,1303.61
2022-10-17T02:29:23.215Z,1303.61
2022-10-17T02:30:23.204Z,1303.61
2022-10-17T02:31:23.199Z,1303.61
2022-10-17T02:32:23.180Z,1303.61
2022-10-17T02:33:23.165Z,1303.61
2022-10-17T02:34:23.153Z,1303.61
2022-10-17T02:35:23.742Z,1303.61
2022-10-17T02:36:23.119Z,1303.61
2022-10-17T02:37:23.108Z,1303.61
2022-10-17T02:38:23.108Z,1303.61
2022-10-17T02:39:23.088Z,1303.61
2022-10-17T02:40:23.086Z,1303.61
2022-10-17T02:41:23.097Z,1303.61
2022-10-17T02:42:23.053Z,1303.61
2022-10-17T02:43:23.066Z,1303.61
2022-10-17T02:44:23.044Z,1303.61
2022-10-17T02:45:23.045Z,1303.61
2022-10-17T02:46:30.032Z,1303.61
2022-10-17T02:47:23.014Z,1303.61
2022-10-17T02:48:22.984Z,1303.61
2022-10-17T02:49:22.967Z,1303.61
2022-10-17T02:50:23.046Z,1303.61
2022-10-17T02:51:22.945Z,1303.61
2022-10-17T02:52:22.939Z,1303.61
2022-10-17T02:53:22.924Z,1303.61
2022-10-17T02:54:22.929Z,1303.61
2022-10-17T02:55:22.900Z,1303.61
2022-10-17T02:56:22.897Z,1303.61
2022-10-17T02:57:22.879Z,1303.61
2022-10-17T02:58:22.876Z,1303.61
2022-10-17T02:59:22.910Z,1303.61
2022-10-17T03:00:22.869Z,1303.61
2022-10-17T03:01:22.909Z,1303.61
2022-10-17T03:02:22.828Z,1303.61
2022-10-17T03:03:22.841Z,1303.61
2022-10-17T03:04:22.805Z,1303.61
2022-10-17T03:05:22.822Z,1303.61
2022-10-17T03:06:22.801Z,1303.61
2022-10-17T03:07:22.777Z,1303.61
2022-10-17T03:08:22.765Z,1303.61
2022-10-17T03:09:22.759Z,1303.61
2022-10-17T03:10:22.749Z,1303.61
2022-10-17T03:11:22.801Z,1303.61
2022-10-17T03:12:22.728Z,1303.61
2022-10-17T03:13:22.702Z,1303.61
2022-10-17T03:14:22.698Z,1303.61
2022-10-17T03:15:22.696Z,1303.61
2022-10-17T03:16:22.674Z,1303.61
2022-10-17T03:17:22.689Z,1303.61
2022-10-17T03:18:22.657Z,1303.61
2022-10-17T03:19:22.633Z,1303.61
2022-10-17T03:20:22.637Z,1303.61
2022-10-17T03:21:22.611Z,1303.61
2022-10-17T03:22:22.605Z,1303.61
2022-10-17T03:23:22.594Z,1303.61
2022-10-17T03:24:22.593Z,1303.61
2022-10-17T03:25:22.567Z,1303.61
2022-10-17T03:26:22.570Z,1303.61
2022-10-17T03:27:22.543Z,1303.61
2022-10-17T03:28:22.602Z,1303.61
2022-10-17T03:29:22.521Z,1303.61
2022-10-17T03:30:22.519Z,1303.61
2022-10-17T03:31:22.541Z,1303.61
2022-10-17T03:32:22.497Z,1303.61
2022-10-17T03:33:22.505Z,1303.61
2022-10-17T03:34:22.481Z,1303.61
2022-10-17T03:35:22.476Z,1303.61
2022-10-17T03:36:22.451Z,1303.61
2022-10-17T03:37:22.432Z,1303.61
2022-10-17T03:38:22.438Z,1303.61
2022-10-17T03:39:22.420Z,1303.61
2022-10-17T03:40:22.411Z,1303.61
2022-10-17T03:41:22.424Z,1303.61
2022-10-17T03:42:22.417Z,1303.61
2022-10-17T03:43:22.379Z,1303.61
2022-10-17T03:44:22.389Z,1303.61
2022-10-17T03:45:22.347Z,1303.61
2022-10-17T03:46:22.353Z,1303.61
2022-10-17T03:47:22.353Z,1303.61
2022-10-17T03:48:22.312Z,1303.61
2022-10-17T03:49:22.315Z,1303.61
2022-10-17T03:50:22.295Z,1303.61
2022-10-17T03:51:22.305Z,1303.61
2022-10-17T03:52:22.288Z,1303.61
2022-10-17T03:53:22.269Z,1303.61
2022-10-17T03:54:22.257Z,1303.61
2022-10-17T03:55:22.231Z,1303.61
2022-10-17T03:56:22.235Z,1303.61
2022-10-17T03:57:22.208Z,1303.61
2022-10-17T03:58:22.199Z,1303.61
2022-10-17T03:59:22.196Z,1303.61
2022-10-17T04:00:22.179Z,1303.61
2022-10-17T04:01:22.231Z,1303.61
2022-10-17T04:02:22.166Z,1303.61
2022-10-17T04:03:22.193Z,1303.61
2022-10-17T04:04:22.218Z,1303.61
2022-10-17T04:05:22.137Z,1303.61
2022-10-17T04:06:22.125Z,1303.61
2022-10-17T04:07:22.153Z,1303.61
2022-10-17T04:08:22.102Z,1303.61
2022-10-17T04:09:22.074Z,1303.61
2022-10-17T04:10:22.070Z,1303.61
2022-10-17T04:11:22.052Z,1303.61
2022-10-17T04:12:22.049Z,1303.61
2022-10-17T04:13:22.046Z,1303.61
2022-10-17T04:14:22.048Z,1303.61
2022-10-17T04:15:22.008Z,1303.61
2022-10-17T04:16:22.013Z,1303.61
2022-10-17T04:17:21.996Z,1303.61
2022-10-17T04:18:21.977Z,1303.61
2022-10-17T04:19:21.960Z,1303.61
2022-10-17T04:20:21.958Z,1303.61
2022-10-17T04:21:21.975Z,1303.61
2022-10-17T04:22:21.934Z,1303.61
2022-10-17T04:23:21.934Z,1303.61
2022-10-17T04:24:21.912Z,1303.61
2022-10-17T04:25:21.921Z,1303.61
2022-10-17T04:26:21.890Z,1303.61
2022-10-17T04:27:21.890Z,1303.61
2022-10-17T04:28:22.021Z,1303.61
2022-10-17T04:29:21.851Z,1303.61
2022-10-17T04:30:21.860Z,1303.61
2022-10-17T04:31:21.842Z,1303.61
2022-10-17T04:32:21.825Z,1303.61
2022-10-17T04:33:21.809Z,1303.61
2022-10-17T04:34:21.811Z,1303.61
2022-10-17T04:35:21.799Z,1303.61
2022-10-17T04:36:21.790Z,1303.61
2022-10-17T04:37:21.780Z,1303.61
2022-10-17T04:38:26.201Z,1303.61
2022-10-17T04:39:22.740Z,1303.61
2022-10-17T04:40:21.734Z,1303.61
2022-10-17T04:41:21.724Z,1303.61
2022-10-17T04:42:21.713Z,1303.61
2022-10-17T04:43:21.722Z,1303.61
2022-10-17T04:44:21.695Z,1303.61
2022-10-17T04:45:21.687Z,1303.61
2022-10-17T04:46:21.683Z,1303.61
2022-10-17T04:47:29.220Z,1303.61
2022-10-17T04:48:21.647Z,1303.61
2022-10-17T04:49:21.638Z,1303.61
2022-10-17T04:50:21.621Z,1303.61
2022-10-17T04:51:24.435Z,1303.61
2022-10-17T04:52:21.618Z,1303.61
2022-10-17T04:53:21.605Z,1303.61
2022-10-17T04:54:21.582Z,1303.61
2022-10-17T04:55:21.580Z,1303.61
2022-10-17T04:56:21.570Z,1303.61
2022-10-17T04:57:21.540Z,1303.61
2022-10-17T04:58:21.545Z,1303.61
2022-10-17T04:59:21.528Z,1303.61
2022-10-17T05:00:21.514Z,1303.61
2022-10-17T05:01:21.601Z,1303.61
2022-10-17T05:02:21.489Z,1303.61
2022-10-17T05:03:21.473Z,1303.61
2022-10-17T05:04:24.006Z,1303.61
2022-10-17T05:05:21.468Z,1303.61
2022-10-17T05:06:21.463Z,1303.61
2022-10-17T05:07:21.460Z,1303.61
2022-10-17T05:08:21.424Z,1303.61
2022-10-17T05:09:21.426Z,1303.61
2022-10-17T05:10:21.409Z,1303.61
2022-10-17T05:11:21.397Z,1303.61
2022-10-17T05:12:21.391Z,1303.61
2022-10-17T05:13:21.375Z,1303.61
2022-10-17T05:14:21.379Z,1303.61
2022-10-17T05:15:21.353Z,1303.61
2022-10-17T05:16:21.350Z,1303.61
2022-10-17T05:17:21.338Z,1303.61
2022-10-17T05:18:21.311Z,1303.61
2022-10-17T05:19:21.297Z,1303.61
2022-10-17T05:20:21.293Z,1303.61
2022-10-17T05:21:21.357Z,1303.61
2022-10-17T05:22:21.272Z,1303.61
2022-10-17T05:23:21.268Z,1303.61
2022-10-17T05:24:21.239Z,1303.61
2022-10-17T05:25:21.254Z,1303.61
2022-10-17T05:26:21.252Z,1303.61
2022-10-17T05:27:21.230Z,1303.61
2022-10-17T05:28:21.275Z,1303.61
2022-10-17T05:29:21.192Z,1303.61
2022-10-17T05:30:21.183Z,1303.61
2022-10-17T05:31:21.184Z,1303.61
2022-10-17T05:32:21.152Z,1303.61
2022-10-17T05:33:21.821Z,1303.61
2022-10-17T05:34:21.128Z,1303.61
2022-10-17T05:35:21.123Z,1303.61
2022-10-17T05:36:21.133Z,1303.61
2022-10-17T05:37:21.128Z,1303.61
2022-10-17T05:38:21.095Z,1303.61
2022-10-17T05:39:21.076Z,1303.61
2022-10-17T05:40:21.064Z,1303.61
2022-10-17T05:41:21.187Z,1303.61
2022-10-17T05:42:21.077Z,1303.61
2022-10-17T05:43:21.268Z,1303.61
2022-10-17T05:44:21.032Z,1303.61
2022-10-17T05:45:21.067Z,1303.61
2022-10-17T05:46:21.033Z,1303.61
2022-10-17T05:47:20.996Z,1303.61
2022-10-17T05:48:20.973Z,1303.61
2022-10-17T05:49:32.635Z,1303.61
2022-10-17T05:50:21.946Z,1303.61
2022-10-17T22:45:26.840Z,1303.61
2022-10-17T22:46:26.805Z,1225.32
2022-10-17T22:47:26.796Z,1231.23
2022-10-17T22:48:26.803Z,1303.61
2022-10-17T22:49:26.771Z,1303.61
2022-10-17T22:50:26.761Z,1303.61
2022-10-17T22:51:26.744Z,1303.61
2022-10-17T22:52:26.730Z,1303.61
2022-10-17T22:53:26.732Z,1303.61
2022-10-17T22:54:26.705Z,1303.61
2022-10-17T22:55:26.698Z,1303.61
2022-10-17T22:56:26.732Z,1303.61
2022-10-17T22:57:26.696Z,1303.61
2022-10-17T22:58:26.687Z,1303.61
2022-10-17T22:59:26.660Z,1303.61
2022-10-17T23:01:26.789Z,1303.61
2022-10-17T23:02:26.626Z,1303.61
2022-10-17T23:03:26.609Z,1303.61
2022-10-17T23:04:26.594Z,1303.61
2022-10-17T23:05:26.586Z,1303.61
2022-10-17T23:06:26.581Z,1303.61
2022-10-17T23:07:26.563Z,1303.61
2022-10-17T23:08:26.548Z,1303.61
2022-10-17T23:10:26.526Z,1303.61
2022-10-17T23:11:26.536Z,1303.61
2022-10-17T23:12:26.505Z,1303.61
2022-10-17T23:13:26.516Z,1303.61
2022-10-17T23:14:26.493Z,1303.61
2022-10-17T23:15:26.497Z,1303.61
2022-10-17T23:16:26.470Z,1303.61
2022-10-17T23:17:26.471Z,1303.61
2022-10-17T23:18:26.508Z,1303.61
2022-10-17T23:19:26.431Z,1303.61
2022-10-17T23:20:26.423Z,1303.61
2022-10-17T23:21:26.426Z,1303.61
2022-10-17T23:22:26.411Z,1303.61
2022-10-17T23:23:26.385Z,1303.61
2022-10-17T23:24:26.403Z,1303.61
2022-10-17T23:25:26.382Z,1303.61
2022-10-17T23:26:26.370Z,1303.61
2022-10-17T23:27:26.381Z,1303.61
2022-10-17T23:28:26.355Z,1303.61
2022-10-17T23:29:26.318Z,1303.61
2022-10-17T23:30:26.308Z,1303.61
2022-10-17T23:31:26.300Z,1303.61
2022-10-17T23:32:26.301Z,1303.61
2022-10-17T23:33:26.291Z,1303.61
2022-10-17T23:34:26.273Z,1303.61
2022-10-17T23:35:26.248Z,1303.61
2022-10-17T23:36:26.285Z,1303.61
2022-10-17T23:37:26.238Z,1303.61
2022-10-17T23:38:26.209Z,1303.61
2022-10-17T23:39:26.204Z,1303.61
2022-10-17T23:40:26.196Z,1303.61
2022-10-17T23:41:26.199Z,1303.61
2022-10-17T23:42:26.191Z,1303.61
2022-10-17T23:43:26.163Z,1303.61
2022-10-17T23:44:26.152Z,1303.61
2022-10-17T23:45:26.169Z,1303.61
2022-10-17T23:46:26.156Z,1303.61
2022-10-17T23:47:26.114Z,1303.61
2022-10-17T23:48:26.113Z,1303.61
2022-10-17T23:49:26.119Z,1303.61
2022-10-17T23:50:26.086Z,1303.61
2022-10-17T23:51:26.085Z,1303.61
2022-10-17T23:52:26.082Z,1303.61
2022-10-17T23:53:26.042Z,1303.61
2022-10-17T23:54:26.036Z,1303.61
2022-10-17T23:55:26.035Z,1303.61
2022-10-17T23:56:26.012Z,1303.61
2022-10-17T23:57:26.008Z,1303.61
2022-10-17T23:58:26.002Z,1303.61
2022-10-17T23:59:25.999Z,1303.61
